TimeCST,TemperatureF,Dew PointF,Humidity,Sea Level PressureIn,VisibilityMPH,Wind Direction,Wind SpeedMPH,Gust SpeedMPH,PrecipitationIn,Events,Conditions,WindDirDegrees,DateUTC
12:53 AM,33.1,26.1,75,30.50,10.0,Calm,Calm,-,N/A,,Clear,0,2012-03-10 06:53:00
1:53 AM,32.0,27.0,82,30.49,10.0,NNE,3.5,-,N/A,,Clear,30,2012-03-10 07:53:00
2:53 AM,35.1,26.1,70,30.47,10.0,NE,3.5,-,N/A,,Clear,40,2012-03-10 08:53:00
3:53 AM,32.0,26.1,79,30.46,10.0,ENE,3.5,-,N/A,,Clear,60,2012-03-10 09:53:00
4:53 AM,33.1,25.0,72,30.46,10.0,East,4.6,-,N/A,,Clear,90,2012-03-10 10:53:00
5:53 AM,33.1,24.1,70,30.47,10.0,Calm,Calm,-,N/A,,Clear,0,2012-03-10 11:53:00
6:53 AM,32.0,25.0,75,30.48,10.0,ENE,3.5,-,N/A,,Clear,70,2012-03-10 12:53:00
7:53 AM,39.9,28.0,63,30.49,10.0,East,6.9,-,N/A,,Clear,100,2012-03-10 13:53:00
8:53 AM,46.0,27.0,47,30.51,10.0,SE,9.2,-,N/A,,Clear,130,2012-03-10 14:53:00
9:53 AM,48.9,25.0,39,30.50,10.0,East,6.9,-,N/A,,Clear,90,2012-03-10 15:53:00
10:53 AM,52.0,21.9,31,30.47,10.0,ESE,6.9,-,N/A,,Clear,120,2012-03-10 16:53:00
11:53 AM,55.9,24.1,29,30.45,10.0,East,3.5,-,N/A,,Clear,80,2012-03-10 17:53:00
12:53 PM,57.9,24.1,27,30.42,10.0,Variable,5.8,-,N/A,,Clear,0,2012-03-10 18:53:00
1:53 PM,60.1,23.0,24,30.38,10.0,ENE,6.9,-,N/A,,Clear,60,2012-03-10 19:53:00
2:53 PM,61.0,23.0,23,30.35,10.0,East,9.2,-,N/A,,Clear,100,2012-03-10 20:53:00
3:53 PM,61.0,23.0,23,30.32,10.0,NE,5.8,-,N/A,,Clear,50,2012-03-10 21:53:00
4:53 PM,59.0,26.1,28,30.31,10.0,East,6.9,-,N/A,,Clear,100,2012-03-10 22:53:00
5:53 PM,53.1,26.1,35,30.31,10.0,East,4.6,-,N/A,,Clear,100,2012-03-10 23:53:00
6:53 PM,50.0,21.9,33,30.31,10.0,East,3.5,-,N/A,,Clear,100,2012-03-11 00:53:00
7:53 PM,46.0,28.0,50,30.32,10.0,ESE,3.5,-,N/A,,Clear,120,2012-03-11 01:53:00
8:53 PM,48.9,24.1,38,30.31,10.0,ESE,5.8,-,N/A,,Clear,120,2012-03-11 02:53:00
9:53 PM,48.0,26.1,42,30.31,10.0,SE,5.8,-,N/A,,Clear,140,2012-03-11 03:53:00
10:53 PM,44.6,28.4,53,30.30,10.0,ESE,4.6,-,N/A,,Clear,120,2012-03-11 04:53:00
11:53 PM,43.0,28.0,56,30.29,10.0,ESE,3.5,-,N/A,,Clear,110,2012-03-11 05:53:00